sensor_id;sensor_type;location;lat;lon;timestamp;temperature;humidity
3860;DHT22;1945;52.036;8.614;2022-07-26T00:00:12;20.40;99.90
3860;DHT22;1945;52.036;8.614;2022-07-26T00:02:39;20.40;99.90
3860;DHT22;1945;52.036;8.614;2022-07-26T00:05:07;20.50;99.90
3860;DHT22;1945;52.036;8.614;2022-07-26T00:07:34;20.40;99.90
3860;DHT22;1945;52.036;8.614;2022-07-26T00:10:03;20.40;99.90
3860;DHT22;1945;52.036;8.614;2022-07-26T00:12:30;20.40;99.90
3860;DHT22;1945;52.036;8.614;2022-07-26T00:14:57;20.40;99.90
3860;DHT22;1945;52.036;8.614;2022-07-26T00:17:24;20.40;99.90
3860;DHT22;1945;52.036;8.614;2022-07-26T00:19:51;20.40;99.90
3860;DHT22;1945;52.036;8.614;2022-07-26T00:22:17;20.40;99.90
3860;DHT22;1945;52.036;8.614;2022-07-26T00:25:02;20.40;99.90
3860;DHT22;1945;52.036;8.614;2022-07-26T00:27:29;20.40;99.90
3860;DHT22;1945;52.036;8.614;2022-07-26T00:29:56;20.30;99.90
3860;DHT22;1945;52.036;8.614;2022-07-26T00:32:23;20.20;99.90
3860;DHT22;1945;52.036;8.614;2022-07-26T00:34:50;20.30;99.90
3860;DHT22;1945;52.036;8.614;2022-07-26T00:37:17;20.20;99.90
3860;DHT22;1945;52.036;8.614;2022-07-26T00:39:44;20.20;99.90
3860;DHT22;1945;52.036;8.614;2022-07-26T00:42:12;20.20;99.90
3860;DHT22;1945;52.036;8.614;2022-07-26T00:44:40;20.20;99.90
3860;DHT22;1945;52.036;8.614;2022-07-26T00:47:07;20.20;99.90
3860;DHT22;1945;52.036;8.614;2022-07-26T00:49:34;20.20;99.90
3860;DHT22;1945;52.036;8.614;2022-07-26T00:52:01;20.10;99.90
3860;DHT22;1945;52.036;8.614;2022-07-26T00:54:28;20.10;99.90
3860;DHT22;1945;52.036;8.614;2022-07-26T00:56:54;20.10;99.90
3860;DHT22;1945;52.036;8.614;2022-07-26T00:59:23;20.10;99.90
3860;DHT22;1945;52.036;8.614;2022-07-26T01:01:49;20.10;99.90
3860;DHT22;1945;52.036;8.614;2022-07-26T01:04:16;20.10;99.90
3860;DHT22;1945;52.036;8.614;2022-07-26T01:06:43;20.10;99.90
3860;DHT22;1945;52.036;8.614;2022-07-26T01:09:10;20.00;1.00
3860;DHT22;1945;52.036;8.614;2022-07-26T01:11:36;20.00;99.90
3860;DHT22;1945;52.036;8.614;2022-07-26T01:14:03;20.00;1.00
3860;DHT22;1945;52.036;8.614;2022-07-26T01:16:31;20.00;1.00
3860;DHT22;1945;52.036;8.614;2022-07-26T01:18:58;19.90;1.00
3860;DHT22;1945;52.036;8.614;2022-07-26T01:21:28;19.90;1.00
3860;DHT22;1945;52.036;8.614;2022-07-26T01:23:55;19.80;1.00
3860;DHT22;1945;52.036;8.614;2022-07-26T01:26:22;19.80;1.00
3860;DHT22;1945;52.036;8.614;2022-07-26T01:28:49;19.70;1.00
3860;DHT22;1945;52.036;8.614;2022-07-26T01:31:16;19.70;1.00
3860;DHT22;1945;52.036;8.614;2022-07-26T01:33:44;19.70;1.00
3860;DHT22;1945;52.036;8.614;2022-07-26T01:36:10;19.60;1.00
3860;DHT22;1945;52.036;8.614;2022-07-26T01:38:39;19.60;1.00
3860;DHT22;1945;52.036;8.614;2022-07-26T01:41:06;19.50;1.00
3860;DHT22;1945;52.036;8.614;2022-07-26T01:43:33;19.50;1.00
3860;DHT22;1945;52.036;8.614;2022-07-26T01:46:00;19.50;1.00
3860;DHT22;1945;52.036;8.614;2022-07-26T01:48:27;19.40;1.00
3860;DHT22;1945;52.036;8.614;2022-07-26T01:50:54;19.40;1.00
3860;DHT22;1945;52.036;8.614;2022-07-26T01:53:20;19.40;1.00
3860;DHT22;1945;52.036;8.614;2022-07-26T01:55:48;19.40;1.00
3860;DHT22;1945;52.036;8.614;2022-07-26T01:58:15;19.40;1.00
3860;DHT22;1945;52.036;8.614;2022-07-26T02:00:42;19.30;1.00
3860;DHT22;1945;52.036;8.614;2022-07-26T02:03:09;19.30;1.00
3860;DHT22;1945;52.036;8.614;2022-07-26T02:05:36;19.30;1.00
3860;DHT22;1945;52.036;8.614;2022-07-26T02:08:02;19.30;1.00
3860;DHT22;1945;52.036;8.614;2022-07-26T02:10:30;19.20;1.00
3860;DHT22;1945;52.036;8.614;2022-07-26T02:13:12;19.20;1.00
3860;DHT22;1945;52.036;8.614;2022-07-26T02:15:38;19.20;1.00
3860;DHT22;1945;52.036;8.614;2022-07-26T02:18:06;19.20;1.00
3860;DHT22;1945;52.036;8.614;2022-07-26T02:20:32;19.20;1.00
3860;DHT22;1945;52.036;8.614;2022-07-26T02:22:59;19.10;1.00
3860;DHT22;1945;52.036;8.614;2022-07-26T02:25:26;19.10;1.00
3860;DHT22;1945;52.036;8.614;2022-07-26T02:27:53;19.00;1.00
3860;DHT22;1945;52.036;8.614;2022-07-26T02:30:21;19.00;1.00
3860;DHT22;1945;52.036;8.614;2022-07-26T02:32:48;19.00;1.00
3860;DHT22;1945;52.036;8.614;2022-07-26T02:35:15;19.00;1.00
3860;DHT22;1945;52.036;8.614;2022-07-26T02:37:42;18.90;1.00
3860;DHT22;1945;52.036;8.614;2022-07-26T02:40:10;18.90;1.00
3860;DHT22;1945;52.036;8.614;2022-07-26T02:42:37;18.90;1.00
3860;DHT22;1945;52.036;8.614;2022-07-26T02:45:04;18.90;1.00
3860;DHT22;1945;52.036;8.614;2022-07-26T02:47:32;19.00;1.00
3860;DHT22;1945;52.036;8.614;2022-07-26T02:49:59;19.00;1.00
3860;DHT22;1945;52.036;8.614;2022-07-26T02:52:26;19.00;1.00
3860;DHT22;1945;52.036;8.614;2022-07-26T02:54:53;18.90;1.00
3860;DHT22;1945;52.036;8.614;2022-07-26T02:57:19;19.00;1.00
3860;DHT22;1945;52.036;8.614;2022-07-26T02:59:46;19.00;1.00
3860;DHT22;1945;52.036;8.614;2022-07-26T03:02:13;18.90;1.00
3860;DHT22;1945;52.036;8.614;2022-07-26T03:04:40;19.10;1.00
3860;DHT22;1945;52.036;8.614;2022-07-26T03:07:07;18.90;1.00
3860;DHT22;1945;52.036;8.614;2022-07-26T03:09:34;18.90;1.00
3860;DHT22;1945;52.036;8.614;2022-07-26T03:12:00;18.90;1.00
3860;DHT22;1945;52.036;8.614;2022-07-26T03:14:27;18.90;1.00
3860;DHT22;1945;52.036;8.614;2022-07-26T03:16:54;18.90;1.00
3860;DHT22;1945;52.036;8.614;2022-07-26T03:19:20;18.80;1.00
3860;DHT22;1945;52.036;8.614;2022-07-26T03:21:48;18.80;1.00
3860;DHT22;1945;52.036;8.614;2022-07-26T03:24:15;18.80;1.00
3860;DHT22;1945;52.036;8.614;2022-07-26T03:26:42;18.80;1.00
3860;DHT22;1945;52.036;8.614;2022-07-26T03:29:08;18.80;1.00
3860;DHT22;1945;52.036;8.614;2022-07-26T03:31:35;18.80;1.00
3860;DHT22;1945;52.036;8.614;2022-07-26T03:34:02;18.80;1.00
3860;DHT22;1945;52.036;8.614;2022-07-26T03:36:28;18.80;1.00
3860;DHT22;1945;52.036;8.614;2022-07-26T03:38:56;18.80;1.00
3860;DHT22;1945;52.036;8.614;2022-07-26T03:41:23;18.80;1.00
3860;DHT22;1945;52.036;8.614;2022-07-26T03:43:50;18.80;1.00
3860;DHT22;1945;52.036;8.614;2022-07-26T03:46:16;18.80;1.00
3860;DHT22;1945;52.036;8.614;2022-07-26T03:48:43;18.70;1.00
3860;DHT22;1945;52.036;8.614;2022-07-26T03:51:10;18.80;1.00
3860;DHT22;1945;52.036;8.614;2022-07-26T03:53:36;18.70;1.00
3860;DHT22;1945;52.036;8.614;2022-07-26T03:56:05;18.70;1.00
3860;DHT22;1945;52.036;8.614;2022-07-26T03:58:49;18.70;1.00
3860;DHT22;1945;52.036;8.614;2022-07-26T04:01:16;18.70;1.00
3860;DHT22;1945;52.036;8.614;2022-07-26T04:03:42;18.80;1.00
3860;DHT22;1945;52.036;8.614;2022-07-26T04:06:09;18.70;1.00
3860;DHT22;1945;52.036;8.614;2022-07-26T04:08:36;18.70;1.00
3860;DHT22;1945;52.036;8.614;2022-07-26T04:11:02;18.70;1.00
3860;DHT22;1945;52.036;8.614;2022-07-26T04:13:30;18.70;1.00
3860;DHT22;1945;52.036;8.614;2022-07-26T04:15:57;18.70;1.00
3860;DHT22;1945;52.036;8.614;2022-07-26T04:18:24;18.70;1.00
3860;DHT22;1945;52.036;8.614;2022-07-26T04:20:51;18.70;1.00
3860;DHT22;1945;52.036;8.614;2022-07-26T04:23:17;18.70;1.00
3860;DHT22;1945;52.036;8.614;2022-07-26T04:25:44;18.70;1.00
3860;DHT22;1945;52.036;8.614;2022-07-26T04:28:11;18.70;1.00
3860;DHT22;1945;52.036;8.614;2022-07-26T04:30:39;18.80;1.00
3860;DHT22;1945;52.036;8.614;2022-07-26T04:33:06;18.70;1.00
3860;DHT22;1945;52.036;8.614;2022-07-26T04:35:33;18.70;1.00
3860;DHT22;1945;52.036;8.614;2022-07-26T04:38:00;18.70;1.00
3860;DHT22;1945;52.036;8.614;2022-07-26T04:40:28;18.70;1.00
3860;DHT22;1945;52.036;8.614;2022-07-26T04:42:58;18.70;1.00
3860;DHT22;1945;52.036;8.614;2022-07-26T04:45:25;18.80;1.00
3860;DHT22;1945;52.036;8.614;2022-07-26T04:47:53;18.80;1.00
3860;DHT22;1945;52.036;8.614;2022-07-26T04:50:22;18.80;1.00
3860;DHT22;1945;52.036;8.614;2022-07-26T04:52:49;18.80;1.00
3860;DHT22;1945;52.036;8.614;2022-07-26T04:55:17;18.80;1.00
3860;DHT22;1945;52.036;8.614;2022-07-26T04:57:45;18.70;1.00
3860;DHT22;1945;52.036;8.614;2022-07-26T05:00:14;18.90;1.00
3860;DHT22;1945;52.036;8.614;2022-07-26T05:02:41;18.80;1.00
3860;DHT22;1945;52.036;8.614;2022-07-26T05:05:09;18.90;1.00
3860;DHT22;1945;52.036;8.614;2022-07-26T05:07:39;18.80;1.00
3860;DHT22;1945;52.036;8.614;2022-07-26T05:10:07;18.80;1.00
3860;DHT22;1945;52.036;8.614;2022-07-26T05:12:34;18.80;1.00
3860;DHT22;1945;52.036;8.614;2022-07-26T05:15:00;18.90;1.00
3860;DHT22;1945;52.036;8.614;2022-07-26T05:17:27;18.90;1.00
3860;DHT22;1945;52.036;8.614;2022-07-26T05:19:54;18.80;1.00
3860;DHT22;1945;52.036;8.614;2022-07-26T05:22:22;19.00;1.00
3860;DHT22;1945;52.036;8.614;2022-07-26T05:24:48;19.10;1.00
3860;DHT22;1945;52.036;8.614;2022-07-26T05:27:15;19.10;1.00
3860;DHT22;1945;52.036;8.614;2022-07-26T05:29:42;19.20;1.00
3860;DHT22;1945;52.036;8.614;2022-07-26T05:32:08;19.50;1.00
3860;DHT22;1945;52.036;8.614;2022-07-26T05:34:35;19.50;1.00
3860;DHT22;1945;52.036;8.614;2022-07-26T05:37:02;19.60;1.00
3860;DHT22;1945;52.036;8.614;2022-07-26T05:39:30;19.60;1.00
3860;DHT22;1945;52.036;8.614;2022-07-26T05:41:57;19.50;1.00
3860;DHT22;1945;52.036;8.614;2022-07-26T05:44:23;19.70;1.00
3860;DHT22;1945;52.036;8.614;2022-07-26T05:46:50;20.50;1.00
3860;DHT22;1945;52.036;8.614;2022-07-26T05:49:17;20.10;1.00
3860;DHT22;1945;52.036;8.614;2022-07-26T05:51:43;20.00;1.00
3860;DHT22;1945;52.036;8.614;2022-07-26T05:54:10;19.90;1.00
3860;DHT22;1945;52.036;8.614;2022-07-26T05:56:38;19.70;1.00
3860;DHT22;1945;52.036;8.614;2022-07-26T05:59:05;19.80;1.00
3860;DHT22;1945;52.036;8.614;2022-07-26T06:01:31;19.90;1.00
3860;DHT22;1945;52.036;8.614;2022-07-26T06:03:59;20.50;1.00
3860;DHT22;1945;52.036;8.614;2022-07-26T06:06:26;20.40;1.00
3860;DHT22;1945;52.036;8.614;2022-07-26T06:08:52;20.00;1.00
3860;DHT22;1945;52.036;8.614;2022-07-26T06:11:20;20.10;1.00
3860;DHT22;1945;52.036;8.614;2022-07-26T06:13:48;20.20;1.00
3860;DHT22;1945;52.036;8.614;2022-07-26T06:16:14;20.20;1.00
3860;DHT22;1945;52.036;8.614;2022-07-26T06:18:42;20.20;1.00
3860;DHT22;1945;52.036;8.614;2022-07-26T06:21:08;20.20;1.00
3860;DHT22;1945;52.036;8.614;2022-07-26T06:23:35;20.20;1.00
3860;DHT22;1945;52.036;8.614;2022-07-26T06:26:03;20.30;1.00
3860;DHT22;1945;52.036;8.614;2022-07-26T06:28:30;20.60;1.00
3860;DHT22;1945;52.036;8.614;2022-07-26T06:30:58;20.90;1.00
3860;DHT22;1945;52.036;8.614;2022-07-26T06:33:25;20.80;1.00
3860;DHT22;1945;52.036;8.614;2022-07-26T06:35:52;20.60;1.00
3860;DHT22;1945;52.036;8.614;2022-07-26T06:38:18;20.70;1.00
3860;DHT22;1945;52.036;8.614;2022-07-26T06:40:45;20.70;1.00
3860;DHT22;1945;52.036;8.614;2022-07-26T06:43:12;20.60;1.00
3860;DHT22;1945;52.036;8.614;2022-07-26T06:45:38;20.60;1.00
3860;DHT22;1945;52.036;8.614;2022-07-26T06:48:06;21.00;1.00
3860;DHT22;1945;52.036;8.614;2022-07-26T06:50:33;21.20;1.00
3860;DHT22;1945;52.036;8.614;2022-07-26T06:53:00;21.00;1.00
3860;DHT22;1945;52.036;8.614;2022-07-26T06:55:26;21.20;1.00
3860;DHT22;1945;52.036;8.614;2022-07-26T06:57:53;21.80;1.00
3860;DHT22;1945;52.036;8.614;2022-07-26T07:00:20;22.20;99.90
3860;DHT22;1945;52.036;8.614;2022-07-26T07:02:46;22.50;99.90
3860;DHT22;1945;52.036;8.614;2022-07-26T07:05:14;22.50;99.90
3860;DHT22;1945;52.036;8.614;2022-07-26T07:07:41;22.20;99.90
3860;DHT22;1945;52.036;8.614;2022-07-26T07:10:08;22.60;99.90
3860;DHT22;1945;52.036;8.614;2022-07-26T07:12:35;23.20;99.90
3860;DHT22;1945;52.036;8.614;2022-07-26T07:15:02;23.80;99.90
3860;DHT22;1945;52.036;8.614;2022-07-26T07:17:29;23.20;99.90
3860;DHT22;1945;52.036;8.614;2022-07-26T07:19:56;23.20;99.90
3860;DHT22;1945;52.036;8.614;2022-07-26T07:22:24;23.60;99.90
3860;DHT22;1945;52.036;8.614;2022-07-26T07:24:50;24.10;99.90
3860;DHT22;1945;52.036;8.614;2022-07-26T07:27:17;24.40;99.90
3860;DHT22;1945;52.036;8.614;2022-07-26T07:29:44;23.80;99.90
3860;DHT22;1945;52.036;8.614;2022-07-26T07:32:10;23.30;99.90
3860;DHT22;1945;52.036;8.614;2022-07-26T07:34:37;23.40;99.90
3860;DHT22;1945;52.036;8.614;2022-07-26T07:37:04;24.00;99.90
3860;DHT22;1945;52.036;8.614;2022-07-26T07:39:32;24.00;99.90
3860;DHT22;1945;52.036;8.614;2022-07-26T07:41:58;24.30;99.90
3860;DHT22;1945;52.036;8.614;2022-07-26T07:44:25;24.20;99.90
3860;DHT22;1945;52.036;8.614;2022-07-26T07:46:52;23.70;99.90
3860;DHT22;1945;52.036;8.614;2022-07-26T07:49:18;23.20;99.90
3860;DHT22;1945;52.036;8.614;2022-07-26T07:51:46;23.10;99.90
3860;DHT22;1945;52.036;8.614;2022-07-26T07:54:13;22.50;99.90
3860;DHT22;1945;52.036;8.614;2022-07-26T07:56:42;22.50;99.90
3860;DHT22;1945;52.036;8.614;2022-07-26T07:59:09;22.60;99.90
3860;DHT22;1945;52.036;8.614;2022-07-26T08:01:36;22.70;99.90
3860;DHT22;1945;52.036;8.614;2022-07-26T08:04:02;22.20;99.90
3860;DHT22;1945;52.036;8.614;2022-07-26T08:06:29;22.10;1.00
3860;DHT22;1945;52.036;8.614;2022-07-26T08:08:56;21.80;1.00
3860;DHT22;1945;52.036;8.614;2022-07-26T08:11:22;21.30;1.00
3860;DHT22;1945;52.036;8.614;2022-07-26T08:13:50;21.30;1.00
3860;DHT22;1945;52.036;8.614;2022-07-26T08:16:17;21.40;1.00
3860;DHT22;1945;52.036;8.614;2022-07-26T08:18:44;21.60;1.00
3860;DHT22;1945;52.036;8.614;2022-07-26T08:21:10;21.70;1.00
3860;DHT22;1945;52.036;8.614;2022-07-26T08:23:37;21.70;1.00
3860;DHT22;1945;52.036;8.614;2022-07-26T08:26:04;21.80;1.00
3860;DHT22;1945;52.036;8.614;2022-07-26T08:28:31;21.80;1.00
3860;DHT22;1945;52.036;8.614;2022-07-26T08:30:59;21.70;1.00
3860;DHT22;1945;52.036;8.614;2022-07-26T08:33:25;22.00;1.00
3860;DHT22;1945;52.036;8.614;2022-07-26T08:35:52;21.70;1.00
3860;DHT22;1945;52.036;8.614;2022-07-26T08:38:19;21.70;1.00
3860;DHT22;1945;52.036;8.614;2022-07-26T08:40:45;22.10;1.00
3860;DHT22;1945;52.036;8.614;2022-07-26T08:43:12;22.40;1.00
3860;DHT22;1945;52.036;8.614;2022-07-26T08:45:39;22.60;1.00
3860;DHT22;1945;52.036;8.614;2022-07-26T08:48:07;22.90;1.00
3860;DHT22;1945;52.036;8.614;2022-07-26T08:50:34;22.60;99.90
3860;DHT22;1945;52.036;8.614;2022-07-26T08:53:03;23.00;1.00
3860;DHT22;1945;52.036;8.614;2022-07-26T08:55:34;22.40;99.90
3860;DHT22;1945;52.036;8.614;2022-07-26T08:58:01;22.10;99.90
3860;DHT22;1945;52.036;8.614;2022-07-26T09:00:29;21.90;99.90
3860;DHT22;1945;52.036;8.614;2022-07-26T09:02:58;21.80;99.90
3860;DHT22;1945;52.036;8.614;2022-07-26T09:05:28;22.00;99.90
3860;DHT22;1945;52.036;8.614;2022-07-26T09:07:55;22.70;99.90
3860;DHT22;1945;52.036;8.614;2022-07-26T09:10:23;22.40;99.90
3860;DHT22;1945;52.036;8.614;2022-07-26T09:12:52;22.20;99.90
3860;DHT22;1945;52.036;8.614;2022-07-26T09:15:21;22.10;99.90
3860;DHT22;1945;52.036;8.614;2022-07-26T09:17:51;21.00;99.90
3860;DHT22;1945;52.036;8.614;2022-07-26T09:20:20;20.40;1.00
3860;DHT22;1945;52.036;8.614;2022-07-26T09:23:00;19.80;99.90
3860;DHT22;1945;52.036;8.614;2022-07-26T09:25:29;19.60;99.90
3860;DHT22;1945;52.036;8.614;2022-07-26T09:27:57;19.60;99.90
3860;DHT22;1945;52.036;8.614;2022-07-26T09:30:26;19.60;1.00
3860;DHT22;1945;52.036;8.614;2022-07-26T09:32:58;19.40;99.90
3860;DHT22;1945;52.036;8.614;2022-07-26T09:35:26;19.50;1.00
3860;DHT22;1945;52.036;8.614;2022-07-26T09:37:53;19.50;1.00
3860;DHT22;1945;52.036;8.614;2022-07-26T09:40:22;19.50;1.00
3860;DHT22;1945;52.036;8.614;2022-07-26T09:42:54;19.40;1.00
3860;DHT22;1945;52.036;8.614;2022-07-26T09:45:21;19.30;1.00
3860;DHT22;1945;52.036;8.614;2022-07-26T09:47:48;19.20;1.00
3860;DHT22;1945;52.036;8.614;2022-07-26T09:50:16;19.20;1.00
3860;DHT22;1945;52.036;8.614;2022-07-26T09:53:03;19.30;70.60
3860;DHT22;1945;52.036;8.614;2022-07-26T09:55:36;19.50;99.90
3860;DHT22;1945;52.036;8.614;2022-07-26T09:58:03;19.40;24.80
3860;DHT22;1945;52.036;8.614;2022-07-26T10:00:31;19.40;74.60
3860;DHT22;1945;52.036;8.614;2022-07-26T10:02:58;19.60;39.50
3860;DHT22;1945;52.036;8.614;2022-07-26T10:05:25;19.50;99.90
3860;DHT22;1945;52.036;8.614;2022-07-26T10:07:52;19.60;99.90
3860;DHT22;1945;52.036;8.614;2022-07-26T10:10:22;19.70;99.90
3860;DHT22;1945;52.036;8.614;2022-07-26T10:12:52;19.70;99.90
3860;DHT22;1945;52.036;8.614;2022-07-26T10:15:35;19.70;99.90
3860;DHT22;1945;52.036;8.614;2022-07-26T10:18:03;19.70;39.70
3860;DHT22;1945;52.036;8.614;2022-07-26T10:20:44;19.80;99.90
3860;DHT22;1945;52.036;8.614;2022-07-26T10:23:40;19.80;99.90
3860;DHT22;1945;52.036;8.614;2022-07-26T10:26:10;19.80;54.30
3860;DHT22;1945;52.036;8.614;2022-07-26T10:28:40;19.90;85.30
3860;DHT22;1945;52.036;8.614;2022-07-26T10:31:29;20.10;98.80
3860;DHT22;1945;52.036;8.614;2022-07-26T10:33:58;20.20;99.90
3860;DHT22;1945;52.036;8.614;2022-07-26T10:36:28;20.30;99.90
3860;DHT22;1945;52.036;8.614;2022-07-26T10:39:01;20.30;99.90
3860;DHT22;1945;52.036;8.614;2022-07-26T10:41:34;20.10;99.90
3860;DHT22;1945;52.036;8.614;2022-07-26T10:44:11;20.10;99.90
3860;DHT22;1945;52.036;8.614;2022-07-26T10:47:03;20.20;99.90
3860;DHT22;1945;52.036;8.614;2022-07-26T10:49:37;20.10;5.40
3860;DHT22;1945;52.036;8.614;2022-07-26T10:52:10;20.00;79.40
3860;DHT22;1945;52.036;8.614;2022-07-26T10:57:42;19.90;1.00
3860;DHT22;1945;52.036;8.614;2022-07-26T11:00:24;20.10;1.00
3860;DHT22;1945;52.036;8.614;2022-07-26T11:02:56;20.10;1.00
3860;DHT22;1945;52.036;8.614;2022-07-26T11:05:27;20.20;1.00
3860;DHT22;1945;52.036;8.614;2022-07-26T11:08:00;20.40;1.00
3860;DHT22;1945;52.036;8.614;2022-07-26T11:10:31;20.50;1.00
3860;DHT22;1945;52.036;8.614;2022-07-26T11:13:10;20.70;1.00
3860;DHT22;1945;52.036;8.614;2022-07-26T11:15:40;20.70;99.90
3860;DHT22;1945;52.036;8.614;2022-07-26T11:18:16;20.80;1.00
3860;DHT22;1945;52.036;8.614;2022-07-26T11:20:44;20.60;1.00
3860;DHT22;1945;52.036;8.614;2022-07-26T11:23:26;20.40;1.00
3860;DHT22;1945;52.036;8.614;2022-07-26T11:26:11;20.20;1.00
3860;DHT22;1945;52.036;8.614;2022-07-26T11:28:54;20.10;1.00
3860;DHT22;1945;52.036;8.614;2022-07-26T11:31:25;20.00;1.00
3860;DHT22;1945;52.036;8.614;2022-07-26T11:33:54;19.70;1.00
3860;DHT22;1945;52.036;8.614;2022-07-26T11:36:38;19.60;1.00
3860;DHT22;1945;52.036;8.614;2022-07-26T11:39:07;20.00;1.00
3860;DHT22;1945;52.036;8.614;2022-07-26T11:41:35;20.00;1.00
3860;DHT22;1945;52.036;8.614;2022-07-26T11:44:03;20.20;1.00
3860;DHT22;1945;52.036;8.614;2022-07-26T11:46:36;20.20;1.00
3860;DHT22;1945;52.036;8.614;2022-07-26T11:49:11;20.10;1.00
3860;DHT22;1945;52.036;8.614;2022-07-26T11:51:38;20.20;1.00
3860;DHT22;1945;52.036;8.614;2022-07-26T11:54:05;20.10;1.00
3860;DHT22;1945;52.036;8.614;2022-07-26T11:56:32;20.30;1.00
3860;DHT22;1945;52.036;8.614;2022-07-26T11:58:59;20.40;1.00
3860;DHT22;1945;52.036;8.614;2022-07-26T12:01:26;20.50;1.00
3860;DHT22;1945;52.036;8.614;2022-07-26T12:03:55;20.20;1.00
3860;DHT22;1945;52.036;8.614;2022-07-26T12:06:24;20.20;1.00
3860;DHT22;1945;52.036;8.614;2022-07-26T12:08:53;20.40;1.00
3860;DHT22;1945;52.036;8.614;2022-07-26T12:11:21;20.50;1.00
3860;DHT22;1945;52.036;8.614;2022-07-26T12:13:54;20.60;1.00
3860;DHT22;1945;52.036;8.614;2022-07-26T12:16:38;20.80;1.00
3860;DHT22;1945;52.036;8.614;2022-07-26T12:19:09;20.70;1.00
3860;DHT22;1945;52.036;8.614;2022-07-26T12:21:41;20.60;1.00
3860;DHT22;1945;52.036;8.614;2022-07-26T12:24:09;20.60;1.00
3860;DHT22;1945;52.036;8.614;2022-07-26T12:26:36;20.40;1.00
3860;DHT22;1945;52.036;8.614;2022-07-26T12:29:04;20.30;1.00
3860;DHT22;1945;52.036;8.614;2022-07-26T12:32:03;20.20;1.00
3860;DHT22;1945;52.036;8.614;2022-07-26T12:34:32;20.60;1.00
3860;DHT22;1945;52.036;8.614;2022-07-26T12:37:10;20.40;1.00
3860;DHT22;1945;52.036;8.614;2022-07-26T12:39:37;20.40;14.60
3860;DHT22;1945;52.036;8.614;2022-07-26T12:42:24;20.20;1.00
3860;DHT22;1945;52.036;8.614;2022-07-26T12:44:52;20.10;22.50
3860;DHT22;1945;52.036;8.614;2022-07-26T12:47:19;20.00;87.50
3860;DHT22;1945;52.036;8.614;2022-07-26T12:49:48;19.80;99.90
3860;DHT22;1945;52.036;8.614;2022-07-26T12:52:16;19.60;99.90
3860;DHT22;1945;52.036;8.614;2022-07-26T12:54:44;19.60;99.90
3860;DHT22;1945;52.036;8.614;2022-07-26T12:57:12;19.70;99.90
3860;DHT22;1945;52.036;8.614;2022-07-26T12:59:38;19.70;99.90
3860;DHT22;1945;52.036;8.614;2022-07-26T13:02:05;19.60;99.90
3860;DHT22;1945;52.036;8.614;2022-07-26T13:04:33;19.50;99.90
3860;DHT22;1945;52.036;8.614;2022-07-26T13:07:01;19.50;99.90
3860;DHT22;1945;52.036;8.614;2022-07-26T13:09:28;19.40;99.90
3860;DHT22;1945;52.036;8.614;2022-07-26T13:11:55;19.40;99.90
3860;DHT22;1945;52.036;8.614;2022-07-26T13:14:22;19.30;99.90
3860;DHT22;1945;52.036;8.614;2022-07-26T13:16:49;19.20;99.90
3860;DHT22;1945;52.036;8.614;2022-07-26T13:19:15;19.20;99.90
3860;DHT22;1945;52.036;8.614;2022-07-26T13:21:42;19.30;99.90
3860;DHT22;1945;52.036;8.614;2022-07-26T13:24:10;19.40;99.90
3860;DHT22;1945;52.036;8.614;2022-07-26T13:26:37;19.50;99.90
3860;DHT22;1945;52.036;8.614;2022-07-26T13:29:04;19.50;99.90
3860;DHT22;1945;52.036;8.614;2022-07-26T13:31:31;19.40;99.90
3860;DHT22;1945;52.036;8.614;2022-07-26T13:33:58;19.50;99.90
3860;DHT22;1945;52.036;8.614;2022-07-26T13:36:25;19.60;99.90
3860;DHT22;1945;52.036;8.614;2022-07-26T13:38:52;19.60;99.90
3860;DHT22;1945;52.036;8.614;2022-07-26T13:41:20;19.70;99.90
3860;DHT22;1945;52.036;8.614;2022-07-26T13:43:47;19.50;99.90
3860;DHT22;1945;52.036;8.614;2022-07-26T13:46:15;19.40;99.90
3860;DHT22;1945;52.036;8.614;2022-07-26T13:48:42;19.50;99.90
3860;DHT22;1945;52.036;8.614;2022-07-26T13:51:08;19.50;99.90
3860;DHT22;1945;52.036;8.614;2022-07-26T13:53:35;19.40;99.90
3860;DHT22;1945;52.036;8.614;2022-07-26T13:56:02;19.30;99.90
3860;DHT22;1945;52.036;8.614;2022-07-26T13:58:30;19.30;99.90
3860;DHT22;1945;52.036;8.614;2022-07-26T14:00:57;19.00;99.90
3860;DHT22;1945;52.036;8.614;2022-07-26T14:03:24;19.00;99.90
3860;DHT22;1945;52.036;8.614;2022-07-26T14:05:51;19.10;99.90
3860;DHT22;1945;52.036;8.614;2022-07-26T14:08:18;19.00;99.90
3860;DHT22;1945;52.036;8.614;2022-07-26T14:10:45;19.10;99.90
3860;DHT22;1945;52.036;8.614;2022-07-26T14:13:13;19.20;99.90
3860;DHT22;1945;52.036;8.614;2022-07-26T14:15:41;19.40;99.90
3860;DHT22;1945;52.036;8.614;2022-07-26T14:18:08;19.30;99.90
3860;DHT22;1945;52.036;8.614;2022-07-26T14:20:35;19.30;99.90
3860;DHT22;1945;52.036;8.614;2022-07-26T14:23:02;19.30;99.90
3860;DHT22;1945;52.036;8.614;2022-07-26T14:25:29;19.40;99.90
3860;DHT22;1945;52.036;8.614;2022-07-26T14:27:55;19.40;99.90
3860;DHT22;1945;52.036;8.614;2022-07-26T14:30:22;19.40;99.90
3860;DHT22;1945;52.036;8.614;2022-07-26T14:32:50;19.40;99.90
3860;DHT22;1945;52.036;8.614;2022-07-26T14:35:17;19.40;99.90
3860;DHT22;1945;52.036;8.614;2022-07-26T14:37:44;19.40;99.90
3860;DHT22;1945;52.036;8.614;2022-07-26T14:40:13;19.40;99.90
3860;DHT22;1945;52.036;8.614;2022-07-26T14:42:40;19.40;99.90
3860;DHT22;1945;52.036;8.614;2022-07-26T14:45:08;19.50;99.90
3860;DHT22;1945;52.036;8.614;2022-07-26T14:47:35;19.70;99.90
3860;DHT22;1945;52.036;8.614;2022-07-26T14:50:04;19.60;99.90
3860;DHT22;1945;52.036;8.614;2022-07-26T14:52:30;19.70;99.90
3860;DHT22;1945;52.036;8.614;2022-07-26T14:54:57;19.70;99.90
3860;DHT22;1945;52.036;8.614;2022-07-26T14:57:24;19.80;99.90
3860;DHT22;1945;52.036;8.614;2022-07-26T14:59:51;19.80;99.90
3860;DHT22;1945;52.036;8.614;2022-07-26T15:02:17;19.90;99.90
3860;DHT22;1945;52.036;8.614;2022-07-26T15:04:44;20.00;99.90
3860;DHT22;1945;52.036;8.614;2022-07-26T15:07:12;20.00;92.10
3860;DHT22;1945;52.036;8.614;2022-07-26T15:09:39;20.00;3.90
3860;DHT22;1945;52.036;8.614;2022-07-26T15:12:06;20.00;11.20
3860;DHT22;1945;52.036;8.614;2022-07-26T15:14:33;20.10;1.00
3860;DHT22;1945;52.036;8.614;2022-07-26T15:17:00;20.10;1.00
3860;DHT22;1945;52.036;8.614;2022-07-26T15:19:27;20.00;1.00
3860;DHT22;1945;52.036;8.614;2022-07-26T15:21:54;20.10;1.00
3860;DHT22;1945;52.036;8.614;2022-07-26T15:24:22;20.40;1.00
3860;DHT22;1945;52.036;8.614;2022-07-26T15:26:49;20.30;99.90
3860;DHT22;1945;52.036;8.614;2022-07-26T15:29:16;20.30;1.00
3860;DHT22;1945;52.036;8.614;2022-07-26T15:31:43;20.40;1.00
3860;DHT22;1945;52.036;8.614;2022-07-26T15:34:09;20.50;1.00
3860;DHT22;1945;52.036;8.614;2022-07-26T15:36:36;20.40;99.90
3860;DHT22;1945;52.036;8.614;2022-07-26T15:39:03;20.40;1.00
3860;DHT22;1945;52.036;8.614;2022-07-26T15:41:32;20.50;1.00
3860;DHT22;1945;52.036;8.614;2022-07-26T15:43:58;20.60;1.00
3860;DHT22;1945;52.036;8.614;2022-07-26T15:46:25;20.60;99.90
3860;DHT22;1945;52.036;8.614;2022-07-26T15:48:52;20.40;99.90
3860;DHT22;1945;52.036;8.614;2022-07-26T15:51:20;20.30;99.90
3860;DHT22;1945;52.036;8.614;2022-07-26T15:53:47;20.40;96.20
3860;DHT22;1945;52.036;8.614;2022-07-26T15:56:14;20.60;99.90
3860;DHT22;1945;52.036;8.614;2022-07-26T15:58:42;20.60;99.90
3860;DHT22;1945;52.036;8.614;2022-07-26T16:01:09;20.60;99.90
3860;DHT22;1945;52.036;8.614;2022-07-26T16:03:36;20.60;3.60
3860;DHT22;1945;52.036;8.614;2022-07-26T16:06:03;20.70;1.00
3860;DHT22;1945;52.036;8.614;2022-07-26T16:08:29;20.90;1.00
3860;DHT22;1945;52.036;8.614;2022-07-26T16:10:56;21.00;1.00
3860;DHT22;1945;52.036;8.614;2022-07-26T16:13:23;21.00;1.00
3860;DHT22;1945;52.036;8.614;2022-07-26T16:15:51;20.80;1.00
3860;DHT22;1945;52.036;8.614;2022-07-26T16:18:18;20.70;99.90
3860;DHT22;1945;52.036;8.614;2022-07-26T16:20:44;20.70;99.90